Time;durP1;ratioP1;P1;durP2;ratioP2;P2;SDS_P1;SDS_P2;PMS_P1;PMS_P2;Temp;Humidity;BMP_temperature;BMP_pressure;BME280_temperature;BME280_humidity;BME280_pressure;Samples;Min_cycle;Max_cycle;Signal;HPM_P1;HPM_P2
2021/11/27 00:01:00;;;;;;;74.40;25.60;;;5.40;99.90;;;;;;4994779;28;20395;-77
2021/11/27 00:03:29;;;;;;;64.50;24.33;;;5.40;99.90;;;;;;4994067;28;20050;-76
2021/11/27 00:05:55;;;;;;;76.27;25.20;;;5.40;99.90;;;;;;4993551;28;20121;-76
2021/11/27 00:08:22;;;;;;;70.20;24.93;;;5.40;99.90;;;;;;4994549;28;20471;-77
2021/11/27 00:10:51;;;;;;;72.93;24.63;;;5.50;99.90;;;;;;4994578;28;20073;-77
2021/11/27 00:13:18;;;;;;;67.97;24.57;;;5.40;99.90;;;;;;4994457;28;20050;-77
2021/11/27 00:15:45;;;;;;;66.80;23.33;;;5.40;99.90;;;;;;4994524;28;20033;-77
2021/11/27 00:18:12;;;;;;;74.00;24.83;;;5.50;99.90;;;;;;4994592;28;20026;-76
2021/11/27 00:20:48;;;;;;;75.37;24.97;;;5.50;99.90;;;;;;4994484;28;20034;-77
2021/11/27 00:23:15;;;;;;;77.87;26.43;;;5.50;99.90;;;;;;4994408;28;20177;-77
2021/11/27 00:25:42;;;;;;;73.83;24.37;;;5.50;99.90;;;;;;4993163;28;20038;-76
2021/11/27 00:28:08;;;;;;;78.53;25.67;;;5.50;99.90;;;;;;4994355;28;20135;-76
2021/11/27 00:30:35;;;;;;;69.80;24.97;;;5.50;99.90;;;;;;4994244;28;20506;-76
2021/11/27 00:33:02;;;;;;;80.43;27.10;;;5.60;99.90;;;;;;4994211;28;20029;-76
2021/11/27 00:35:28;;;;;;;66.23;24.60;;;5.50;99.90;;;;;;4992900;28;20038;-77
2021/11/27 00:37:56;;;;;;;79.77;26.67;;;5.50;99.90;;;;;;4992824;28;20037;-77
2021/11/27 00:40:22;;;;;;;70.30;26.77;;;5.50;99.90;;;;;;4994164;28;20089;-77
2021/11/27 00:42:48;;;;;;;81.33;26.47;;;5.50;99.90;;;;;;4993383;28;20038;-77
2021/11/27 00:45:16;;;;;;;69.73;25.47;;;5.50;99.90;;;;;;4994133;28;20546;-77
2021/11/27 00:47:46;;;;;;;84.33;26.63;;;5.50;99.90;;;;;;4994140;28;20034;-77
2021/11/27 00:50:15;;;;;;;65.47;24.57;;;5.50;99.90;;;;;;4992549;28;20026;-77
2021/11/27 00:52:41;;;;;;;63.80;23.47;;;5.50;99.90;;;;;;4993882;28;20108;-77
2021/11/27 00:55:08;;;;;;;59.07;23.00;;;5.50;99.90;;;;;;4993997;28;20478;-76
2021/11/27 00:57:34;;;;;;;57.63;22.13;;;5.40;99.90;;;;;;4993761;28;20073;-76
2021/11/27 01:00:00;;;;;;;60.90;22.53;;;5.40;99.90;;;;;;4976559;28;20125;-76
2021/11/27 01:02:26;;;;;;;62.13;21.73;;;5.40;99.90;;;;;;4993931;28;20493;-76
2021/11/27 01:04:52;;;;;;;52.77;18.87;;;5.40;99.90;;;;;;4993612;28;20054;-77
2021/11/27 01:07:17;;;;;;;54.23;18.87;;;5.40;99.90;;;;;;4993981;28;20049;-77
2021/11/27 01:09:44;;;;;;;57.97;18.53;;;5.30;99.90;;;;;;4992782;28;20030;-77
2021/11/27 01:12:09;;;;;;;56.40;18.37;;;5.40;99.90;;;;;;4992611;28;20030;-77
2021/11/27 01:14:36;;;;;;;57.37;19.37;;;5.40;99.90;;;;;;4993265;28;20063;-77
2021/11/27 01:17:06;;;;;;;60.30;18.60;;;5.40;99.90;;;;;;4996711;28;20077;-77
2021/11/27 01:19:33;;;;;;;56.87;17.60;;;5.40;99.90;;;;;;4997724;28;20026;-77
2021/11/27 01:22:12;;;;;;;52.33;17.23;;;5.40;99.90;;;;;;4996655;28;20061;-77
2021/11/27 01:24:39;;;;;;;52.30;16.80;;;5.40;99.90;;;;;;4997664;28;20021;-77
2021/11/27 01:27:05;;;;;;;45.00;16.47;;;5.30;99.90;;;;;;4997729;28;20439;-76
2021/11/27 01:29:30;;;;;;;54.03;16.37;;;5.40;99.90;;;;;;4997557;28;20054;-77
2021/11/27 01:31:56;;;;;;;50.60;16.83;;;5.30;99.90;;;;;;4996414;28;20042;-76
2021/11/27 01:34:23;;;;;;;53.43;17.47;;;5.40;99.90;;;;;;4996328;28;20098;-76
2021/11/27 01:36:48;;;;;;;55.60;16.23;;;5.40;99.90;;;;;;4996310;28;20026;-76
2021/11/27 01:39:14;;;;;;;60.87;18.57;;;5.40;99.90;;;;;;4996225;28;20022;-77
2021/11/27 01:41:41;;;;;;;40.97;15.63;;;5.40;99.90;;;;;;4996094;28;20026;-77
2021/11/27 01:44:08;;;;;;;33.40;12.83;;;5.40;99.90;;;;;;4996274;28;20030;-77
2021/11/27 01:46:34;;;;;;;22.80;10.00;;;5.30;99.90;;;;;;4997410;28;20034;-78
2021/11/27 01:49:01;;;;;;;19.13;8.33;;;5.20;99.90;;;;;;4997548;28;20033;-77
2021/11/27 01:51:26;;;;;;;18.20;6.33;;;5.10;99.90;;;;;;4980084;28;20027;-77
2021/11/27 01:53:56;;;;;;;14.97;5.73;;;5.00;99.90;;;;;;4996069;28;20076;-78
2021/11/27 01:56:27;;;;;;;12.23;5.13;;;4.80;99.90;;;;;;4997786;28;20379;-77
2021/11/27 01:58:54;;;;;;;14.17;5.67;;;4.80;99.90;;;;;;4997204;28;20023;-77
2021/11/27 02:01:24;;;;;;;11.47;4.73;;;4.70;99.90;;;;;;4996094;28;20057;-79
2021/11/27 02:03:50;;;;;;;12.93;4.63;;;4.60;99.90;;;;;;4995662;28;20494;-78
2021/11/27 02:06:18;;;;;;;13.87;4.33;;;4.50;99.90;;;;;;4997017;28;20026;-78
2021/11/27 02:08:47;;;;;;;8.70;4.10;;;4.30;99.90;;;;;;4997082;28;20050;-78
2021/11/27 02:11:16;;;;;;;11.50;3.93;;;4.40;99.90;;;;;;4995617;28;20034;-73
2021/11/27 02:13:41;;;;;;;8.63;3.73;;;4.30;99.90;;;;;;4996690;28;20470;-74
2021/11/27 02:16:07;;;;;;;10.90;3.63;;;4.30;99.90;;;;;;4995507;28;20037;-73
2021/11/27 02:18:33;;;;;;;10.93;3.40;;;4.20;99.90;;;;;;4996779;28;20026;-73
2021/11/27 02:21:12;;;;;;;9.73;3.00;;;4.20;99.90;;;;;;4995308;28;20045;-74
2021/11/27 02:23:38;;;;;;;8.63;3.07;;;4.20;99.90;;;;;;4996650;28;20018;-74
2021/11/27 02:26:07;;;;;;;6.80;2.63;;;4.20;99.90;;;;;;4995062;28;20057;-73
2021/11/27 02:28:36;;;;;;;10.77;3.03;;;4.10;99.90;;;;;;4996673;28;20081;-73
2021/11/27 02:31:03;;;;;;;8.70;2.30;;;4.00;99.90;;;;;;4996457;28;20143;-73
2021/11/27 02:33:29;;;;;;;11.47;2.50;;;4.10;99.90;;;;;;4996438;28;20034;-73
2021/11/27 02:35:54;;;;;;;6.07;1.80;;;4.00;99.90;;;;;;4996482;28;20076;-77
2021/11/27 02:38:20;;;;;;;7.13;1.70;;;4.00;99.90;;;;;;4995173;28;20034;-79
2021/11/27 02:40:46;;;;;;;7.63;1.83;;;3.90;99.90;;;;;;4995100;28;20153;-78
2021/11/27 02:43:11;;;;;;;5.73;1.60;;;3.90;99.90;;;;;;4995302;28;20034;-78
2021/11/27 02:45:37;;;;;;;8.20;1.97;;;3.90;99.90;;;;;;4995062;28;20037;-77
2021/11/27 02:48:04;;;;;;;6.93;2.00;;;3.90;99.90;;;;;;4995035;28;20030;-78
2021/11/27 02:50:30;;;;;;;6.70;1.87;;;4.00;99.90;;;;;;4994793;28;20033;-78
2021/11/27 02:52:56;;;;;;;8.50;1.70;;;3.90;99.90;;;;;;4994817;28;20415;-78
2021/11/27 02:55:22;;;;;;;6.03;2.20;;;3.90;99.90;;;;;;4996061;28;20019;-78
2021/11/27 02:57:48;;;;;;;10.50;2.37;;;3.90;99.90;;;;;;4994781;28;20029;-78
2021/11/27 03:00:20;;;;;;;8.10;2.20;;;3.90;99.90;;;;;;4994727;28;20105;-78
2021/11/27 03:02:47;;;;;;;8.17;2.43;;;3.90;99.90;;;;;;4995872;28;20084;-78
2021/11/27 03:05:13;;;;;;;7.57;2.40;;;3.90;99.90;;;;;;4994368;28;20081;-78
2021/11/27 03:07:39;;;;;;;9.67;2.70;;;3.80;99.90;;;;;;4994543;28;20026;-78
2021/11/27 03:10:07;;;;;;;8.93;2.70;;;3.80;99.90;;;;;;4994566;28;20570;-78
2021/11/27 03:12:33;;;;;;;7.87;2.10;;;3.80;99.90;;;;;;4995832;28;20050;-78
2021/11/27 03:14:59;;;;;;;8.87;2.40;;;3.70;99.90;;;;;;4995616;28;20061;-78
2021/11/27 03:17:24;;;;;;;5.60;2.03;;;3.70;99.90;;;;;;4995703;28;20490;-78
2021/11/27 03:19:50;;;;;;;6.00;2.10;;;3.70;99.90;;;;;;4995675;28;20026;-78
2021/11/27 03:22:19;;;;;;;8.97;2.60;;;3.70;99.90;;;;;;4994299;28;20030;-78
2021/11/27 03:24:45;;;;;;;8.83;2.60;;;3.70;99.90;;;;;;4995493;28;20026;-77
2021/11/27 03:27:14;;;;;;;8.67;2.30;;;3.60;99.90;;;;;;4994219;28;20470;-78
2021/11/27 03:29:40;;;;;;;7.27;2.43;;;3.70;99.90;;;;;;4995434;28;20488;-78
2021/11/27 03:32:15;;;;;;;7.10;2.20;;;3.60;99.90;;;;;;4995339;28;20386;-78
2021/11/27 03:34:42;;;;;;;9.03;2.50;;;3.60;99.90;;;;;;4993936;28;20482;-78
2021/11/27 03:37:09;;;;;;;7.93;2.10;;;3.60;99.90;;;;;;4994651;28;20026;-78
2021/11/27 03:39:35;;;;;;;8.33;1.63;;;3.60;99.90;;;;;;4994060;28;20034;-78
2021/11/27 03:42:08;;;;;;;5.50;1.63;;;3.60;99.90;;;;;;4995125;28;20029;-78
2021/11/27 03:44:34;;;;;;;5.10;1.87;;;3.50;99.90;;;;;;4995133;28;20383;-78
2021/11/27 03:47:00;;;;;;;7.03;1.40;;;3.40;99.90;;;;;;4995167;28;20036;-78
2021/11/27 03:49:27;;;;;;;6.63;1.50;;;3.40;99.90;;;;;;4994987;28;20026;-78
2021/11/27 03:51:54;;;;;;;4.17;1.23;;;3.40;99.90;;;;;;4994925;28;20165;-78
2021/11/27 03:54:20;;;;;;;6.33;1.20;;;3.30;99.90;;;;;;4993824;28;20391;-78
2021/11/27 03:56:46;;;;;;;3.87;1.13;;;3.30;99.90;;;;;;4994983;28;20026;-78
2021/11/27 03:59:12;;;;;;;3.23;1.57;;;3.20;99.90;;;;;;4993768;28;20080;-80
2021/11/27 04:01:38;;;;;;;3.57;0.90;;;3.20;99.90;;;;;;4994759;28;20088;-78
2021/11/27 04:04:04;;;;;;;6.03;0.97;;;3.30;99.90;;;;;;4993474;28;20093;-79
2021/11/27 04:06:32;;;;;;;6.20;1.20;;;3.10;99.90;;;;;;4993479;28;20037;-78
2021/11/27 04:09:00;;;;;;;4.33;0.83;;;3.10;99.90;;;;;;4994826;28;20077;-78
2021/11/27 04:11:26;;;;;;;5.43;1.23;;;3.00;99.90;;;;;;4994821;28;20030;-78
2021/11/27 04:13:53;;;;;;;6.40;1.10;;;3.00;99.90;;;;;;4993312;28;20035;-78
2021/11/27 04:16:18;;;;;;;5.20;1.10;;;3.00;99.90;;;;;;4993249;28;20022;-78
2021/11/27 04:18:44;;;;;;;3.30;1.17;;;3.00;99.90;;;;;;4994670;28;20030;-78
2021/11/27 04:21:11;;;;;;;8.10;1.10;;;2.90;99.90;;;;;;4994570;28;20129;-78
2021/11/27 04:23:38;;;;;;;4.57;1.00;;;2.90;99.90;;;;;;4994507;28;20062;-78
2021/11/27 04:26:04;;;;;;;4.30;0.97;;;2.90;99.90;;;;;;4993318;28;20073;-78
2021/11/27 04:28:30;;;;;;;4.60;1.23;;;2.80;99.90;;;;;;4977203;28;20113;-78
2021/11/27 04:30:56;;;;;;;4.70;0.83;;;2.80;99.90;;;;;;4994385;28;20030;-78
2021/11/27 04:33:21;;;;;;;4.70;0.90;;;2.80;99.90;;;;;;4994366;28;20529;-77
2021/11/27 04:35:47;;;;;;;2.73;0.87;;;2.80;99.90;;;;;;4976974;28;20035;-78
2021/11/27 04:38:13;;;;;;;6.67;0.93;;;2.80;99.90;;;;;;4994136;28;20030;-78
2021/11/27 04:40:38;;;;;;;3.40;0.77;;;2.80;99.90;;;;;;4994359;28;20113;-77
2021/11/27 04:43:04;;;;;;;4.27;1.00;;;2.70;99.90;;;;;;4994237;28;20026;-77
2021/11/27 04:45:32;;;;;;;4.87;1.07;;;2.70;99.90;;;;;;4992976;28;20130;-77
2021/11/27 04:47:58;;;;;;;4.87;1.00;;;2.70;99.90;;;;;;4993057;28;20022;-77
2021/11/27 04:50:25;;;;;;;5.23;1.33;;;2.70;99.90;;;;;;4993046;28;20030;-78
2021/11/27 04:52:51;;;;;;;8.73;1.13;;;2.70;99.90;;;;;;4993955;28;20037;-77
2021/11/27 04:55:18;;;;;;;4.33;0.77;;;2.70;99.90;;;;;;4993026;28;20105;-78
2021/11/27 04:57:44;;;;;;;8.83;1.00;;;2.70;99.90;;;;;;4993943;28;20026;-77
2021/11/27 05:00:33;;;;;;;4.87;0.90;;;2.70;99.90;;;;;;4992567;28;20022;-77
2021/11/27 05:02:59;;;;;;;5.80;0.90;;;2.70;99.90;;;;;;4993947;28;20509;-77
2021/11/27 05:05:25;;;;;;;4.77;0.90;;;2.70;99.90;;;;;;4993844;28;20078;-77
2021/11/27 05:07:52;;;;;;;4.17;1.00;;;2.70;99.90;;;;;;4992753;28;20108;-77
2021/11/27 05:10:18;;;;;;;4.93;1.00;;;2.70;99.90;;;;;;4993673;28;20379;-77
2021/11/27 05:12:44;;;;;;;6.73;1.53;;;2.70;99.90;;;;;;4993711;28;20467;-77
2021/11/27 05:15:11;;;;;;;4.33;1.00;;;2.70;99.90;;;;;;4992640;28;20043;-78
2021/11/27 05:17:36;;;;;;;5.20;0.90;;;2.70;99.90;;;;;;4992587;28;20486;-77
2021/11/27 05:20:05;;;;;;;3.17;0.70;;;2.70;99.90;;;;;;4993948;28;20069;-78
2021/11/27 05:22:31;;;;;;;3.63;1.30;;;2.70;99.90;;;;;;4993810;28;20022;-78
2021/11/27 05:24:57;;;;;;;7.87;1.10;;;2.60;99.90;;;;;;4992668;28;20368;-77
2021/11/27 05:27:23;;;;;;;4.43;1.50;;;2.60;99.90;;;;;;4992685;28;20379;-77
2021/11/27 05:29:49;;;;;;;5.10;1.30;;;2.60;99.90;;;;;;4992470;28;20488;-77
2021/11/27 05:34:52;;;;;;;7.70;1.30;;;2.60;99.90;;;;;;4994001;28;20033;-77
2021/11/27 05:37:18;;;;;;;6.77;1.30;;;2.60;99.90;;;;;;4993806;28;20037;-78
2021/11/27 05:39:45;;;;;;;5.47;1.30;;;2.50;99.90;;;;;;4992587;28;20029;-78
2021/11/27 05:42:13;;;;;;;5.43;1.43;;;2.60;99.90;;;;;;4976069;28;20022;-78
2021/11/27 05:44:39;;;;;;;5.57;1.50;;;2.50;99.90;;;;;;4993690;28;20030;-78
2021/11/27 05:47:05;;;;;;;4.03;1.13;;;2.60;99.90;;;;;;4993580;28;20515;-78
2021/11/27 05:49:31;;;;;;;7.37;1.50;;;2.50;99.90;;;;;;4993633;28;20098;-77
2021/11/27 05:51:57;;;;;;;10.50;2.03;;;2.50;99.90;;;;;;4993363;28;20109;-78
2021/11/27 05:54:22;;;;;;;7.53;1.67;;;2.50;99.90;;;;;;4992355;28;20368;-78
2021/11/27 05:56:48;;;;;;;5.13;1.77;;;2.50;99.90;;;;;;4992230;28;20031;-78
2021/11/27 05:59:13;;;;;;;7.53;2.13;;;2.50;99.90;;;;;;4992145;28;20061;-78
2021/11/27 06:01:39;;;;;;;6.10;1.50;;;2.40;99.90;;;;;;4995779;28;20065;-77
2021/11/27 06:04:05;;;;;;;4.73;1.60;;;2.40;99.90;;;;;;4989273;28;20050;-78
2021/11/27 06:06:31;;;;;;;5.90;2.00;;;2.40;99.90;;;;;;4979595;28;20034;-78
2021/11/27 06:08:56;;;;;;;6.17;2.00;;;2.30;99.90;;;;;;4983060;28;20034;-77
2021/11/27 06:11:23;;;;;;;5.33;1.70;;;2.30;99.90;;;;;;4981603;28;20361;-78
2021/11/27 06:13:49;;;;;;;7.00;2.50;;;2.30;99.90;;;;;;4979961;28;20030;-78
2021/11/27 06:16:15;;;;;;;6.23;2.40;;;2.30;99.90;;;;;;4985608;28;20027;-78
2021/11/27 06:18:40;;;;;;;8.00;2.70;;;2.30;99.90;;;;;;4976179;28;20035;-78
2021/11/27 06:21:08;;;;;;;6.83;2.40;;;2.30;99.90;;;;;;4976159;28;20034;-77
2021/11/27 06:23:34;;;;;;;7.77;2.60;;;2.30;99.90;;;;;;4978932;28;20027;-77
2021/11/27 06:25:59;;;;;;;7.63;2.73;;;2.30;99.90;;;;;;4976143;28;20487;-78
2021/11/27 06:28:25;;;;;;;8.07;2.90;;;2.30;99.90;;;;;;4975736;28;20022;-78
2021/11/27 06:30:51;;;;;;;10.77;3.33;;;2.30;99.90;;;;;;4975276;28;20392;-74
2021/11/27 06:33:17;;;;;;;11.47;3.03;;;2.40;99.90;;;;;;4975753;28;20495;-74
2021/11/27 06:35:42;;;;;;;11.50;3.73;;;2.20;99.90;;;;;;4975584;28;20021;-74
2021/11/27 06:38:09;;;;;;;10.57;3.17;;;2.20;99.90;;;;;;4974813;28;20035;-74
2021/11/27 06:40:34;;;;;;;11.30;2.87;;;2.30;99.90;;;;;;4976921;28;20038;-74
2021/11/27 06:43:01;;;;;;;9.33;3.10;;;2.20;99.90;;;;;;4976792;28;20023;-74
2021/11/27 06:45:28;;;;;;;10.97;3.83;;;2.20;99.90;;;;;;4976726;28;20391;-74
2021/11/27 06:47:54;;;;;;;10.20;3.20;;;2.20;99.90;;;;;;4976792;28;20464;-74
2021/11/27 06:50:21;;;;;;;12.80;3.40;;;2.30;99.90;;;;;;4976674;28;20042;-74
2021/11/27 06:52:46;;;;;;;10.07;3.47;;;2.30;99.90;;;;;;4975461;28;20101;-74
2021/11/27 06:55:12;;;;;;;10.10;3.40;;;2.30;99.90;;;;;;4975335;28;20503;-74
2021/11/27 06:57:38;;;;;;;9.93;3.37;;;2.30;99.90;;;;;;4975169;28;20487;-74
2021/11/27 07:00:05;;;;;;;12.70;3.80;;;2.30;99.90;;;;;;4975381;28;20030;-74
2021/11/27 07:02:31;;;;;;;9.70;3.37;;;2.30;99.90;;;;;;4976272;28;20023;-74
2021/11/27 07:04:57;;;;;;;11.77;3.50;;;2.20;99.90;;;;;;4975080;28;20065;-74
2021/11/27 07:07:24;;;;;;;11.60;3.80;;;2.30;99.90;;;;;;4976335;28;20109;-74
2021/11/27 07:09:50;;;;;;;11.87;3.27;;;2.30;99.90;;;;;;4974891;28;20034;-73
2021/11/27 07:12:16;;;;;;;10.33;3.20;;;2.30;99.90;;;;;;4975308;28;20019;-74
2021/11/27 07:14:41;;;;;;;13.73;4.07;;;2.30;99.90;;;;;;4958992;28;20569;-73
2021/11/27 07:17:07;;;;;;;12.13;4.10;;;2.30;99.90;;;;;;4975231;28;20093;-74
2021/11/27 07:19:33;;;;;;;13.00;4.03;;;2.30;99.90;;;;;;4976199;28;20031;-73
2021/11/27 07:22:00;;;;;;;14.67;4.80;;;2.30;99.90;;;;;;4976062;28;20031;-73
2021/11/27 07:24:26;;;;;;;13.10;4.77;;;2.30;99.90;;;;;;4974839;28;20118;-73
2021/11/27 07:26:51;;;;;;;11.57;3.90;;;2.30;99.90;;;;;;4974767;28;20062;-73
2021/11/27 07:29:17;;;;;;;12.37;3.97;;;2.30;99.90;;;;;;4974800;28;20035;-74
2021/11/27 07:31:43;;;;;;;12.80;4.20;;;2.40;99.90;;;;;;4975805;28;20384;-73
2021/11/27 07:34:08;;;;;;;11.37;4.33;;;2.40;99.90;;;;;;4974388;28;20042;-73
2021/11/27 07:36:34;;;;;;;10.53;3.73;;;2.30;99.90;;;;;;4955098;28;20390;-73
2021/11/27 07:39:00;;;;;;;13.87;4.07;;;2.40;99.90;;;;;;4994836;28;20441;-74
2021/11/27 07:41:26;;;;;;;9.63;3.63;;;2.40;99.90;;;;;;4995063;28;20038;-74
2021/11/27 07:43:52;;;;;;;10.37;4.00;;;2.40;99.90;;;;;;4994785;28;20030;-74
2021/11/27 07:46:18;;;;;;;13.80;4.50;;;2.40;99.90;;;;;;4995047;28;20030;-74
2021/11/27 07:48:45;;;;;;;17.37;5.43;;;2.40;99.90;;;;;;5010016;28;20026;-74
2021/11/27 07:51:11;;;;;;;13.60;5.00;;;2.40;99.90;;;;;;4994804;28;20038;-75
2021/11/27 07:53:37;;;;;;;14.13;4.63;;;2.40;99.90;;;;;;4994920;28;20100;-74
2021/11/27 07:56:04;;;;;;;15.70;4.67;;;2.30;99.90;;;;;;5010163;28;20455;-74
2021/11/27 07:58:29;;;;;;;14.73;5.07;;;2.40;99.90;;;;;;5009821;28;20033;-74
2021/11/27 08:00:55;;;;;;;17.70;5.43;;;2.40;99.90;;;;;;4994343;28;20386;-74
2021/11/27 08:03:21;;;;;;;22.30;6.57;;;2.40;99.90;;;;;;4992664;28;20061;-75
2021/11/27 08:05:47;;;;;;;17.83;6.60;;;2.30;99.90;;;;;;4993031;28;20097;-74
2021/11/27 08:08:12;;;;;;;20.97;7.60;;;2.40;99.90;;;;;;4976198;28;20030;-75
2021/11/27 08:10:38;;;;;;;24.87;7.57;;;2.30;99.90;;;;;;4992359;28;20042;-75
2021/11/27 08:13:04;;;;;;;24.73;7.83;;;2.50;99.90;;;;;;4976885;28;20117;-74
2021/11/27 08:15:29;;;;;;;25.20;7.70;;;2.30;99.90;;;;;;4993169;28;20030;-75
2021/11/27 08:17:55;;;;;;;23.00;7.63;;;2.40;99.90;;;;;;4992474;28;20031;-75
2021/11/27 08:20:21;;;;;;;26.60;7.97;;;2.40;99.90;;;;;;4991758;28;20069;-75
2021/11/27 08:22:47;;;;;;;26.93;7.67;;;2.30;99.90;;;;;;4973215;28;20060;-75
2021/11/27 08:25:13;;;;;;;24.63;7.77;;;2.30;99.90;;;;;;4975154;28;20027;-75
2021/11/27 08:27:39;;;;;;;25.47;8.47;;;2.40;99.90;;;;;;4974912;28;20031;-75
2021/11/27 08:30:08;;;;;;;21.70;7.37;;;2.40;99.90;;;;;;4974735;28;20471;-75
2021/11/27 08:32:34;;;;;;;21.00;7.67;;;2.40;99.90;;;;;;4983887;28;20057;-75
2021/11/27 08:35:00;;;;;;;19.93;7.23;;;2.40;99.90;;;;;;4994161;28;20478;-75
2021/11/27 08:37:26;;;;;;;19.43;7.00;;;2.40;99.90;;;;;;4976500;28;20469;-74
2021/11/27 08:39:52;;;;;;;21.10;7.00;;;2.40;99.90;;;;;;4991139;28;20438;-75
2021/11/27 08:42:21;;;;;;;24.00;7.87;;;2.40;99.90;;;;;;4992571;28;20056;-73
2021/11/27 08:44:50;;;;;;;19.17;6.77;;;2.30;99.90;;;;;;4994006;28;20023;-74
2021/11/27 08:47:16;;;;;;;19.53;5.80;;;2.30;99.90;;;;;;4992518;28;20030;-74
2021/11/27 08:49:43;;;;;;;20.17;7.23;;;2.30;99.90;;;;;;4992286;28;20037;-74
2021/11/27 08:52:08;;;;;;;15.70;6.27;;;2.30;99.90;;;;;;4992571;28;20479;-74
2021/11/27 08:54:34;;;;;;;21.50;7.23;;;2.40;99.90;;;;;;4993808;28;20030;-73
2021/11/27 08:57:00;;;;;;;24.67;7.40;;;2.40;99.90;;;;;;4992253;28;20030;-73
2021/11/27 08:59:25;;;;;;;21.07;7.43;;;2.40;99.90;;;;;;4993397;28;20030;-72
2021/11/27 09:01:53;;;;;;;15.13;6.07;;;2.40;99.90;;;;;;4993527;28;20089;-78
2021/11/27 09:04:18;;;;;;;19.50;7.20;;;2.50;99.90;;;;;;4993516;28;20054;-78
2021/11/27 09:06:45;;;;;;;17.83;5.33;;;2.50;99.90;;;;;;5013387;28;20551;-78
2021/11/27 09:09:10;;;;;;;15.50;5.97;;;2.50;99.90;;;;;;5012245;28;20037;-78
2021/11/27 09:11:36;;;;;;;11.53;5.70;;;2.50;99.90;;;;;;4995713;28;20030;-77
2021/11/27 09:56:08;;;;;;;15.03;4.57;;;2.90;99.90;;;;;;5015650;28;20073;-83
2021/11/27 09:58:34;;;;;;;12.13;4.60;;;2.90;99.90;;;;;;5013396;28;20087;-84
2021/11/27 10:01:03;;;;;;;13.93;4.93;;;2.90;99.90;;;;;;5013121;28;20478;-85
2021/11/27 10:03:29;;;;;;;10.40;3.90;;;3.10;99.90;;;;;;5023495;28;20030;-84
2021/11/27 10:05:57;;;;;;;11.67;4.73;;;3.00;99.90;;;;;;5014960;28;20018;-85
2021/11/27 10:08:23;;;;;;;11.97;4.93;;;3.10;99.90;;;;;;5016356;28;20159;-85
2021/11/27 10:10:49;;;;;;;11.83;4.77;;;3.10;99.90;;;;;;5015634;28;20104;-85
2021/11/27 10:13:22;;;;;;;12.73;5.47;;;3.20;99.90;;;;;;5015832;28;20398;-85
2021/11/27 10:15:51;;;;;;;15.80;5.65;;;3.10;99.90;;;;;;5017022;28;20022;-85
2021/11/27 10:18:20;;;;;;;11.33;5.03;;;3.10;99.90;;;;;;5015626;28;20053;-86
2021/11/27 10:20:45;;;;;;;15.03;5.73;;;3.20;99.90;;;;;;5015899;28;20018;-86
2021/11/27 10:23:11;;;;;;;13.97;5.70;;;3.20;99.90;;;;;;5015540;28;20109;-86
2021/11/27 10:25:39;;;;;;;14.07;5.87;;;3.10;99.90;;;;;;5016837;28;20141;-85
2021/11/27 10:28:11;;;;;;;15.83;5.13;;;3.20;99.90;;;;;;5016340;28;20034;-86
2021/11/27 10:30:44;;;;;;;19.87;6.70;;;3.30;99.90;;;;;;5015122;28;20033;-85
2021/11/27 10:33:10;;;;;;;18.50;6.77;;;3.30;99.90;;;;;;5016622;28;20501;-86
2021/11/27 10:35:46;;;;;;;19.73;7.23;;;3.30;99.90;;;;;;5015260;28;20030;-85
2021/11/27 10:38:12;;;;;;;17.73;6.13;;;3.30;99.90;;;;;;5000545;28;20032;-85
2021/11/27 10:40:38;;;;;;;21.77;7.30;;;3.40;99.90;;;;;;4998580;28;20105;-84
2021/11/27 10:43:10;;;;;;;20.77;7.03;;;3.30;99.90;;;;;;4998474;28;20030;-84
2021/11/27 10:45:38;;;;;;;26.43;7.77;;;3.30;99.90;;;;;;5015934;28;20022;-84
2021/11/27 10:48:18;;;;;;;25.70;9.50;;;3.40;99.90;;;;;;5014573;28;20140;-85
2021/11/27 10:51:02;;;;;;;29.33;9.13;;;3.50;99.90;;;;;;5015620;28;20030;-85
2021/11/27 10:53:36;;;;;;;35.95;11.02;;;3.70;99.90;;;;;;4997560;28;20056;-85
2021/11/27 10:56:10;;;;;;;32.58;10.73;;;3.70;99.90;;;;;;5014412;28;20034;-84
2021/11/27 10:59:05;;;;;;;43.27;12.20;;;3.80;99.90;;;;;;5014406;28;20034;-84
2021/11/27 11:01:31;;;;;;;46.92;13.32;;;4.00;99.90;;;;;;4997831;28;20068;-84
2021/11/27 11:04:16;;;;;;;49.20;15.37;;;4.10;99.90;;;;;;4998197;28;20143;-85
2021/11/27 11:06:41;;;;;;;60.10;17.47;;;4.20;99.90;;;;;;5015395;28;20034;-85
2021/11/27 11:09:10;;;;;;;54.93;17.87;;;4.30;99.90;;;;;;5014760;28;20059;-85
2021/11/27 11:11:36;;;;;;;61.93;19.90;;;4.50;99.90;;;;;;4999105;28;20045;-85
2021/11/27 11:14:22;;;;;;;65.53;21.83;;;4.70;99.90;;;;;;5014862;28;20100;-85
2021/11/27 11:16:56;;;;;;;70.43;23.80;;;5.00;99.90;;;;;;5014645;28;20026;-85
2021/11/27 11:19:23;;;;;;;72.27;23.17;;;5.10;99.90;;;;;;5015378;28;20030;-85
2021/11/27 11:22:16;;;;;;;63.87;22.80;;;5.20;99.90;;;;;;5013813;28;20030;-85
2021/11/27 11:24:44;;;;;;;61.73;24.13;;;5.20;99.90;;;;;;5013768;28;20022;-84
2021/11/27 11:27:10;;;;;;;78.03;27.60;;;5.20;99.90;;;;;;5013660;28;20072;-85
2021/11/27 11:29:47;;;;;;;80.97;27.63;;;5.20;99.90;;;;;;5015673;28;20026;-85
2021/11/27 11:32:21;;;;;;;71.53;25.87;;;5.20;99.90;;;;;;5015035;28;20517;-84
2021/11/27 11:34:52;;;;;;;79.90;27.20;;;5.20;99.90;;;;;;5014027;28;20029;-85
2021/11/27 11:37:18;;;;;;;90.67;29.60;;;5.20;99.90;;;;;;5013881;28;20022;-86
2021/11/27 11:39:46;;;;;;;70.50;25.60;;;5.30;99.90;;;;;;4997663;28;20053;-85
2021/11/27 11:42:12;;;;;;;68.03;25.17;;;5.30;99.90;;;;;;5013969;28;20125;-85
2021/11/27 11:44:41;;;;;;;58.37;24.93;;;5.40;99.90;;;;;;4997241;28;20026;-85
2021/11/27 11:47:10;;;;;;;72.50;24.17;;;5.50;99.90;;;;;;4997839;28;20030;-85
2021/11/27 11:49:37;;;;;;;68.40;23.30;;;5.60;99.90;;;;;;5014261;28;20467;-85
2021/11/27 11:52:11;;;;;;;61.37;25.67;;;5.60;99.90;;;;;;5013672;28;20049;-85
2021/11/27 11:54:37;;;;;;;;;;;5.70;99.90;;;;;;5013397;28;20042;-85
2021/11/27 11:57:09;;;;;;;59.97;22.00;;;5.90;99.90;;;;;;5014785;28;19916;-85
2021/11/27 11:59:39;;;;;;;58.97;22.00;;;5.90;99.90;;;;;;5013300;28;20107;-85
2021/11/27 12:02:12;;;;;;;49.97;18.97;;;5.90;99.90;;;;;;5015278;28;20022;-85
2021/11/27 12:04:57;;;;;;;52.73;19.60;;;6.00;99.90;;;;;;5013727;28;20105;-86
2021/11/27 12:07:47;;;;;;;51.87;19.37;;;6.00;99.90;;;;;;5013059;28;20087;-85
2021/11/27 12:10:14;;;;;;;57.77;19.87;;;6.10;99.90;;;;;;5013383;28;20037;-85
2021/11/27 12:12:39;;;;;;;47.37;19.00;;;6.10;99.90;;;;;;5013529;28;20049;-86
2021/11/27 12:15:06;;;;;;;52.03;18.80;;;6.20;99.90;;;;;;5014835;28;20390;-85
2021/11/27 12:17:34;;;;;;;50.40;20.40;;;6.10;99.90;;;;;;4996481;28;20033;-85
2021/11/27 12:20:03;;;;;;;53.57;19.30;;;6.10;99.90;;;;;;5012187;28;20030;-85
2021/11/27 12:22:33;;;;;;;52.70;21.40;;;6.20;99.90;;;;;;5012903;28;20054;-85
2021/11/27 12:25:22;;;;;;;60.50;22.60;;;6.00;99.90;;;;;;5012130;28;20041;-84
2021/11/27 12:28:01;;;;;;;47.77;19.63;;;6.00;99.90;;;;;;5013060;28;20022;-85
2021/11/27 12:30:30;;;;;;;48.10;19.60;;;6.00;99.90;;;;;;5013163;28;20117;-85
2021/11/27 12:32:56;;;;;;;52.73;21.20;;;6.10;99.90;;;;;;4996688;28;20033;-85
2021/11/27 12:35:28;;;;;;;54.60;22.30;;;6.10;99.90;;;;;;5011141;28;20022;-84
2021/11/27 12:38:12;;;;;;;55.47;21.30;;;6.20;99.90;;;;;;5011687;28;20034;-84
2021/11/27 12:40:43;;;;;;;56.03;20.55;;;6.20;99.90;;;;;;5010267;28;20045;-84
2021/11/27 12:43:13;;;;;;;56.30;21.83;;;6.30;99.90;;;;;;5008998;28;20021;-84
2021/11/27 12:45:42;;;;;;;50.57;20.80;;;6.40;99.90;;;;;;5010578;28;20041;-85
2021/11/27 12:48:34;;;;;;;55.10;23.30;;;6.50;99.90;;;;;;5011639;28;20029;-84
2021/11/27 12:51:18;;;;;;;42.87;19.97;;;6.70;99.90;;;;;;5013465;28;20033;-85
2021/11/27 12:53:59;;;;;;;36.80;14.88;;;7.20;99.90;;;;;;5021397;28;20473;-85
2021/11/27 12:56:54;;;;;;;28.60;10.80;;;7.50;99.90;;;;;;5011565;28;20062;-85
2021/11/27 12:59:22;;;;;;;23.80;8.70;;;7.80;99.90;;;;;;5010906;28;20036;-85
2021/11/27 13:01:52;;;;;;;24.67;7.93;;;7.90;99.90;;;;;;5018042;28;20022;-84
2021/11/27 13:04:20;;;;;;;26.13;8.10;;;7.80;99.90;;;;;;4994317;28;20054;-85
2021/11/27 13:06:46;;;;;;;27.37;8.57;;;7.70;99.90;;;;;;5013067;28;20022;-85
2021/11/27 13:09:19;;;;;;;23.70;9.20;;;7.50;99.90;;;;;;5013030;28;20030;-84
2021/11/27 13:11:50;;;;;;;25.43;9.60;;;7.30;99.90;;;;;;5012686;28;20045;-83
2021/11/27 13:14:33;;;;;;;24.70;9.63;;;7.10;99.90;;;;;;5012641;28;20356;-85
2021/11/27 13:17:06;;;;;;;24.27;10.67;;;7.00;99.90;;;;;;5012638;28;20022;-84
2021/11/27 13:19:34;;;;;;;29.50;13.03;;;6.70;99.90;;;;;;5012355;28;20030;-83
2021/11/27 13:22:18;;;;;;;31.27;13.83;;;6.60;99.90;;;;;;5012174;28;20025;-84
2021/11/27 13:25:04;;;;;;;31.90;15.52;;;6.40;99.90;;;;;;5012495;28;20026;-83
2021/11/27 13:27:41;;;;;;;31.70;15.50;;;6.30;99.90;;;;;;5012014;28;20026;-83
2021/11/27 13:30:15;;;;;;;36.33;15.70;;;6.20;99.90;;;;;;5012552;28;20022;-84
2021/11/27 13:32:49;;;;;;;21.70;10.73;;;6.10;99.90;;;;;;5012305;28;20029;-85
2021/11/27 13:35:19;;;;;;;31.27;15.67;;;6.00;99.90;;;;;;5013319;28;20101;-85
2021/11/27 13:37:54;;;;;;;32.27;16.33;;;6.00;99.90;;;;;;5012325;28;20054;-85